createdAt,value
2024-03-08T00:01:48.173Z,16.33
2024-03-08T00:04:17.919Z,14.65
2024-03-08T00:06:47.336Z,15.73
2024-03-08T00:09:16.949Z,15.80
2024-03-08T00:11:45.578Z,16.40
2024-03-08T00:14:14.061Z,16.80
2024-03-08T00:16:44.882Z,16.60
2024-03-08T00:19:13.353Z,16.45
2024-03-08T00:21:43.437Z,16.88
2024-03-08T00:24:11.937Z,16.30
2024-03-08T00:26:40.527Z,16.58
2024-03-08T00:29:08.988Z,16.83
2024-03-08T00:31:37.427Z,17.95
2024-03-08T00:34:05.784Z,16.92
2024-03-08T00:36:34.322Z,16.90
2024-03-08T00:39:07.459Z,17.48
2024-03-08T00:41:36.190Z,17.35
2024-03-08T00:44:05.910Z,18.08
2024-03-08T00:46:35.386Z,18.02
2024-03-08T00:49:03.844Z,17.17
2024-03-08T00:51:32.287Z,17.45
2024-03-08T00:54:00.852Z,17.88
2024-03-08T00:56:30.688Z,19.38
2024-03-08T00:58:59.087Z,17.08
2024-03-08T01:01:28.431Z,17.90
2024-03-08T01:03:58.212Z,18.63
2024-03-08T01:06:26.649Z,18.35
2024-03-08T01:08:55.061Z,17.77
2024-03-08T01:11:23.612Z,19.17
2024-03-08T01:13:54.656Z,18.20
2024-03-08T01:16:23.793Z,17.20
2024-03-08T01:18:52.413Z,17.35
2024-03-08T01:21:21.163Z,16.83
2024-03-08T01:23:49.772Z,18.75
2024-03-08T01:26:18.220Z,17.88
2024-03-08T01:28:46.742Z,18.25
2024-03-08T01:31:17.278Z,18.05
2024-03-08T01:33:45.804Z,16.67
2024-03-08T01:36:16.654Z,18.13
2024-03-08T01:38:45.291Z,17.60
2024-03-08T01:41:14.722Z,16.45
2024-03-08T01:43:43.103Z,17.00
2024-03-08T01:46:13.870Z,16.52
2024-03-08T01:48:44.000Z,17.33
2024-03-08T01:51:13.206Z,19.52
2024-03-08T01:53:43.431Z,17.35
2024-03-08T01:56:14.054Z,19.27
2024-03-08T01:58:44.389Z,16.88
2024-03-08T02:01:16.191Z,18.00
2024-03-08T02:03:47.594Z,17.10
2024-03-08T02:06:17.659Z,17.92
2024-03-08T02:08:47.277Z,17.65
2024-03-08T02:11:17.375Z,17.98
2024-03-08T02:13:45.769Z,18.38
2024-03-08T02:16:14.283Z,19.63
2024-03-08T02:18:43.457Z,17.67
2024-03-08T02:21:13.455Z,17.98
2024-03-08T02:23:42.922Z,17.17
2024-03-08T02:26:11.425Z,18.65
2024-03-08T02:28:39.980Z,17.23
2024-03-08T02:31:09.393Z,18.77
2024-03-08T02:33:37.880Z,18.42
2024-03-08T02:36:07.843Z,19.00
2024-03-08T02:38:37.806Z,18.50
2024-03-08T02:41:07.241Z,17.40
2024-03-08T02:43:35.963Z,18.35
2024-03-08T02:46:04.669Z,18.05
2024-03-08T02:48:33.287Z,17.75
2024-03-08T02:51:03.295Z,15.93
2024-03-08T02:53:31.890Z,18.00
2024-03-08T02:56:02.021Z,19.45
2024-03-08T02:58:30.505Z,18.25
2024-03-08T03:00:58.998Z,18.10
2024-03-08T03:03:28.205Z,18.05
2024-03-08T03:05:57.630Z,18.25
2024-03-08T03:08:26.399Z,18.38
2024-03-08T03:10:58.034Z,18.60
2024-03-08T03:13:30.824Z,17.85
2024-03-08T03:15:59.597Z,18.67
2024-03-08T03:18:28.815Z,17.13
2024-03-08T03:20:57.551Z,18.70
2024-03-08T03:23:27.727Z,17.45
2024-03-08T03:25:58.618Z,16.48
2024-03-08T03:28:29.703Z,18.13
2024-03-08T03:31:00.041Z,15.98
2024-03-08T03:33:28.715Z,18.30
2024-03-08T03:35:57.332Z,17.55
2024-03-08T03:38:27.347Z,19.00
2024-03-08T03:40:58.638Z,18.58
2024-03-08T03:43:28.720Z,18.15
2024-03-08T03:45:57.684Z,19.13
2024-03-08T03:48:26.180Z,17.67
2024-03-08T03:50:54.937Z,19.85
2024-03-08T03:53:23.411Z,17.52
2024-03-08T03:55:51.794Z,19.25
2024-03-08T03:58:23.680Z,19.08
2024-03-08T04:00:54.881Z,19.38
2024-03-08T04:03:25.923Z,17.42
2024-03-08T04:05:56.989Z,18.75
2024-03-08T04:08:39.510Z,17.58
2024-03-08T04:11:13.248Z,18.17
2024-03-08T04:13:52.370Z,18.65
2024-03-08T04:16:22.675Z,18.55
2024-03-08T04:18:52.017Z,18.77
2024-03-08T04:21:21.342Z,18.67
2024-03-08T04:23:50.997Z,18.02
2024-03-08T04:26:20.423Z,18.65
2024-03-08T04:28:50.212Z,19.45
2024-03-08T04:31:18.969Z,20.13
2024-03-08T04:33:49.525Z,18.58
2024-03-08T04:36:18.299Z,19.38
2024-03-08T04:38:48.838Z,18.88
2024-03-08T04:41:19.096Z,19.40
2024-03-08T04:43:48.001Z,17.90
2024-03-08T04:46:17.611Z,18.60
2024-03-08T04:48:49.939Z,18.83
2024-03-08T04:51:23.867Z,17.42
2024-03-08T04:53:53.038Z,19.40
2024-03-08T04:56:22.017Z,18.75
2024-03-08T04:58:52.665Z,17.85
2024-03-08T05:01:24.970Z,18.52
2024-03-08T05:04:03.335Z,17.50
2024-03-08T05:06:37.838Z,19.02
2024-03-08T05:09:15.233Z,19.00
2024-03-08T05:11:45.284Z,18.42
2024-03-08T05:14:18.130Z,20.13
2024-03-08T05:19:23.113Z,16.63
2024-03-08T05:24:21.830Z,18.23
2024-03-08T05:26:54.664Z,19.38
2024-03-08T05:31:55.562Z,18.55
2024-03-08T05:34:43.320Z,19.75
2024-03-08T05:37:18.557Z,17.15
2024-03-08T05:39:48.045Z,17.77
2024-03-08T05:42:17.085Z,18.02
2024-03-08T05:44:45.482Z,19.27
2024-03-08T05:47:17.377Z,17.88
2024-03-08T05:49:57.834Z,16.97
2024-03-08T05:52:27.604Z,18.60
2024-03-08T05:55:16.861Z,18.23
2024-03-08T05:57:45.464Z,17.33
2024-03-08T06:00:17.423Z,17.20
2024-03-08T06:02:46.394Z,17.42
2024-03-08T06:05:18.172Z,17.48
2024-03-08T06:07:46.657Z,17.77
2024-03-08T06:10:21.814Z,17.10
2024-03-08T06:19:57.742Z,19.85
2024-03-08T06:28:09.922Z,18.88
2024-03-08T06:30:56.180Z,18.85
2024-03-08T06:33:28.570Z,17.70
2024-03-08T06:35:58.959Z,16.95
2024-03-08T06:38:37.949Z,18.92
2024-03-08T06:41:11.340Z,19.20
2024-03-08T06:43:52.097Z,18.98
2024-03-08T06:46:22.743Z,18.55
2024-03-08T06:48:57.597Z,18.00
2024-03-08T06:51:30.132Z,18.80
2024-03-08T06:54:00.241Z,17.58
2024-03-08T06:56:39.788Z,17.83
2024-03-08T06:59:16.806Z,17.25
2024-03-08T07:01:46.873Z,18.35
2024-03-08T07:04:27.973Z,17.85
2024-03-08T07:07:00.967Z,18.02
2024-03-08T07:09:39.281Z,17.17
2024-03-08T07:12:12.653Z,18.25
2024-03-08T07:15:06.402Z,15.18
2024-03-08T07:17:38.953Z,17.98
2024-03-08T07:20:14.028Z,18.35
2024-03-08T07:22:49.244Z,17.48
2024-03-08T07:25:32.646Z,17.25
2024-03-08T07:28:05.241Z,18.17
2024-03-08T07:31:10.678Z,18.33
2024-03-08T07:33:39.991Z,18.55
2024-03-08T07:36:23.732Z,18.00
2024-03-08T07:38:52.290Z,18.20
2024-03-08T07:41:21.432Z,18.85
2024-03-08T07:43:51.514Z,18.48
2024-03-08T07:46:25.325Z,14.77
2024-03-08T07:48:54.423Z,16.63
2024-03-08T07:51:24.539Z,18.30
2024-03-08T07:53:53.991Z,18.17
2024-03-08T07:56:25.134Z,18.38
2024-03-08T07:58:56.490Z,17.70
2024-03-08T08:01:27.686Z,18.38
2024-03-08T08:04:14.820Z,16.05
2024-03-08T08:06:43.751Z,14.75
2024-03-08T08:09:15.632Z,19.65
2024-03-08T08:11:45.039Z,17.73
2024-03-08T08:14:14.125Z,19.13
2024-03-08T08:16:46.933Z,18.90
2024-03-08T08:19:17.377Z,19.77
2024-03-08T08:21:45.938Z,17.45
2024-03-08T08:24:22.405Z,17.88
2024-03-08T08:26:51.217Z,17.98
2024-03-08T08:29:19.745Z,19.00
2024-03-08T08:31:52.057Z,17.70
2024-03-08T08:34:23.220Z,17.95
2024-03-08T08:36:55.706Z,14.32
2024-03-08T08:39:24.301Z,16.20
2024-03-08T08:41:56.041Z,18.15
2024-03-08T08:44:27.340Z,19.17
2024-03-08T08:47:02.708Z,15.63
2024-03-08T08:49:37.410Z,16.35
2024-03-08T08:52:15.588Z,17.23
2024-03-08T08:54:49.040Z,15.77
2024-03-08T08:59:51.742Z,16.88
2024-03-08T09:04:54.289Z,15.30
2024-03-08T09:07:28.258Z,17.07
2024-03-08T09:10:00.240Z,17.05
2024-03-08T09:12:29.085Z,17.90
2024-03-08T09:15:00.769Z,17.30
2024-03-08T09:17:31.632Z,16.92
2024-03-08T09:20:01.031Z,16.02
2024-03-08T09:22:29.780Z,17.73
2024-03-08T09:24:58.714Z,16.80
2024-03-08T09:27:27.163Z,16.90
2024-03-08T09:29:56.132Z,16.95
2024-03-08T09:32:29.875Z,17.00
2024-03-08T09:34:59.733Z,17.13
2024-03-08T09:37:28.858Z,17.65
2024-03-08T09:39:57.269Z,17.00
2024-03-08T09:42:25.876Z,18.38
2024-03-08T09:44:54.908Z,16.00
2024-03-08T09:47:32.964Z,16.05
2024-03-08T09:50:03.387Z,18.15
2024-03-08T09:52:34.040Z,18.35
2024-03-08T09:55:04.025Z,17.95
2024-03-08T09:57:39.294Z,16.30
2024-03-08T10:00:24.312Z,17.63
2024-03-08T10:02:55.840Z,16.20
2024-03-08T10:05:26.360Z,19.80
2024-03-08T10:07:56.318Z,19.23
2024-03-08T10:10:24.834Z,15.52
2024-03-08T10:12:56.439Z,18.85
2024-03-08T10:15:25.549Z,17.85
2024-03-08T10:17:57.672Z,18.02
2024-03-08T10:20:35.651Z,18.33
2024-03-08T10:23:11.580Z,19.27
2024-03-08T10:25:43.650Z,18.52
2024-03-08T10:28:12.263Z,17.73
2024-03-08T10:30:40.853Z,16.95
2024-03-08T10:33:09.471Z,17.75
2024-03-08T10:35:39.378Z,17.52
2024-03-08T10:38:11.524Z,18.77
2024-03-08T10:40:42.739Z,19.05
2024-03-08T10:43:21.532Z,18.05
2024-03-08T10:45:50.487Z,19.50
2024-03-08T10:48:36.008Z,18.38
2024-03-08T10:51:12.406Z,17.15
2024-03-08T10:53:42.889Z,17.13
2024-03-08T10:56:12.001Z,17.80
2024-03-08T10:58:41.058Z,16.02
2024-03-08T11:01:11.598Z,17.00
2024-03-08T11:03:47.780Z,19.02
2024-03-08T11:06:24.474Z,20.48
2024-03-08T11:08:53.870Z,15.15
2024-03-08T11:11:34.549Z,15.70
2024-03-08T11:14:05.993Z,14.65
2024-03-08T11:16:45.368Z,15.60
2024-03-08T11:19:32.856Z,14.35
2024-03-08T11:22:04.228Z,13.38
2024-03-08T11:24:43.178Z,11.68
2024-03-08T11:27:13.427Z,11.57
2024-03-08T11:29:42.138Z,11.30
2024-03-08T11:32:10.951Z,11.63
2024-03-08T11:34:39.691Z,8.85
2024-03-08T11:37:16.273Z,8.65
2024-03-08T11:39:50.541Z,8.55
2024-03-08T11:42:19.417Z,7.10
2024-03-08T11:44:49.208Z,8.00
2024-03-08T11:47:18.708Z,8.43
2024-03-08T11:49:49.548Z,9.00
2024-03-08T11:52:20.895Z,9.00
2024-03-08T11:54:59.011Z,10.15
2024-03-08T11:57:29.805Z,8.25
2024-03-08T11:59:59.664Z,8.02
2024-03-08T12:02:29.047Z,8.18
2024-03-08T12:05:02.340Z,7.25
2024-03-08T12:07:33.511Z,8.05
2024-03-08T12:10:19.732Z,8.30
2024-03-08T12:12:49.319Z,9.07
2024-03-08T12:15:19.239Z,8.10
2024-03-08T12:17:49.594Z,8.23
2024-03-08T12:20:19.531Z,7.25
2024-03-08T12:22:49.977Z,7.20
2024-03-08T12:25:18.549Z,8.50
2024-03-08T12:27:47.036Z,8.70
2024-03-08T12:30:23.503Z,8.77
2024-03-08T12:32:55.536Z,9.15
2024-03-08T12:35:24.409Z,7.80
2024-03-08T12:37:55.906Z,10.07
2024-03-08T12:40:33.179Z,8.32
2024-03-08T12:43:02.252Z,10.40
2024-03-08T12:45:30.819Z,14.65
2024-03-08T12:48:00.306Z,22.13
2024-03-08T12:50:31.385Z,12.07
2024-03-08T12:53:01.328Z,11.25
2024-03-08T12:55:29.853Z,9.65
2024-03-08T12:57:59.903Z,8.60
2024-03-08T13:00:29.360Z,7.15
2024-03-08T13:02:57.732Z,9.00
2024-03-08T13:05:27.160Z,6.65
2024-03-08T13:07:56.172Z,7.50
2024-03-08T13:10:26.046Z,7.82
2024-03-08T13:12:55.837Z,19.17
2024-03-08T13:15:24.888Z,18.75
2024-03-08T13:17:53.299Z,17.35
2024-03-08T13:20:30.784Z,20.35
2024-03-08T13:23:03.245Z,8.48
2024-03-08T13:25:33.179Z,9.07
2024-03-08T13:28:02.282Z,7.88
2024-03-08T13:30:32.129Z,8.63
2024-03-08T13:33:00.903Z,7.88
2024-03-08T13:35:31.542Z,8.00
2024-03-08T13:38:00.222Z,8.05
2024-03-08T13:40:28.850Z,7.88
2024-03-08T13:42:59.740Z,6.25
2024-03-08T13:45:28.136Z,7.60
2024-03-08T13:47:57.107Z,7.95
2024-03-08T13:50:27.190Z,12.65
2024-03-08T13:52:56.673Z,16.38
2024-03-08T13:55:28.381Z,23.63
2024-03-08T13:58:00.733Z,14.95
2024-03-08T14:00:34.373Z,11.57
2024-03-08T14:03:03.085Z,9.20
2024-03-08T14:05:32.857Z,10.40
2024-03-08T14:08:02.337Z,12.55
2024-03-08T14:10:32.429Z,11.93
2024-03-08T14:13:03.973Z,11.65
2024-03-08T14:15:32.454Z,10.50
2024-03-08T14:18:00.912Z,9.93
2024-03-08T14:20:29.905Z,12.45
2024-03-08T14:22:58.735Z,10.40
2024-03-08T14:25:27.464Z,9.40
2024-03-08T14:27:59.543Z,10.65
2024-03-08T14:30:36.320Z,11.77
2024-03-08T14:33:06.817Z,10.80
2024-03-08T14:35:35.614Z,12.05
2024-03-08T14:38:04.589Z,12.25
2024-03-08T14:40:33.269Z,11.63
2024-03-08T14:43:05.449Z,12.40
2024-03-08T14:45:36.450Z,13.35
2024-03-08T14:48:06.107Z,13.35
2024-03-08T14:50:34.912Z,12.70
2024-03-08T14:53:07.826Z,21.40
2024-03-08T14:55:36.785Z,15.88
2024-03-08T14:58:05.897Z,14.20
2024-03-08T15:00:36.500Z,13.90
2024-03-08T15:03:08.110Z,16.23
2024-03-08T15:05:39.865Z,14.70
2024-03-08T15:08:12.870Z,12.97
2024-03-08T15:10:43.336Z,15.93
2024-03-08T15:13:22.965Z,17.35
2024-03-08T15:15:57.489Z,15.07
2024-03-08T15:18:32.242Z,18.58
2024-03-08T15:21:00.776Z,16.23
2024-03-08T15:23:29.306Z,16.00
2024-03-08T15:25:58.200Z,14.13
2024-03-08T15:28:35.274Z,14.32
2024-03-08T15:31:07.650Z,14.18
2024-03-08T15:33:42.841Z,15.55
2024-03-08T15:36:12.572Z,18.02
2024-03-08T15:38:41.076Z,62.72
2024-03-08T15:41:11.072Z,37.13
2024-03-08T15:43:40.874Z,74.95
2024-03-08T15:46:11.723Z,46.05
2024-03-08T15:48:43.493Z,21.05
2024-03-08T15:51:12.380Z,23.02
2024-03-08T15:53:41.603Z,30.95
2024-03-08T15:56:10.801Z,16.27
2024-03-08T15:58:39.648Z,18.92
2024-03-08T16:01:13.205Z,34.20
2024-03-08T16:06:09.732Z,15.23
2024-03-08T16:08:40.867Z,15.65
2024-03-08T16:11:09.689Z,15.75
2024-03-08T16:13:40.224Z,14.32
2024-03-08T16:16:10.609Z,14.57
2024-03-08T16:18:39.528Z,16.17
2024-03-08T16:21:09.319Z,12.65
2024-03-08T16:23:39.102Z,16.40
2024-03-08T16:26:10.394Z,16.35
2024-03-08T16:28:45.476Z,16.85
2024-03-08T16:31:16.185Z,14.82
2024-03-08T16:33:45.784Z,16.00
2024-03-08T16:36:15.153Z,14.75
2024-03-08T16:38:46.495Z,17.30
2024-03-08T16:41:15.807Z,17.38
2024-03-08T16:43:46.053Z,16.40
2024-03-08T16:46:15.976Z,14.73
2024-03-08T16:48:44.637Z,15.32
2024-03-08T16:51:13.112Z,33.88
2024-03-08T16:53:43.234Z,23.77
2024-03-08T16:56:14.111Z,37.28
2024-03-08T16:58:44.524Z,16.80
2024-03-08T17:01:17.761Z,29.42
2024-03-08T17:03:56.489Z,18.70
2024-03-08T17:08:57.905Z,23.90
2024-03-08T17:11:26.652Z,16.98
2024-03-08T17:13:55.136Z,17.40
2024-03-08T17:16:26.508Z,19.35
2024-03-08T17:18:55.803Z,19.73
2024-03-08T17:21:24.426Z,17.90
2024-03-08T17:23:53.188Z,18.95
2024-03-08T17:26:24.057Z,17.80
2024-03-08T17:28:52.576Z,17.60
2024-03-08T17:31:22.638Z,17.45
2024-03-08T17:33:52.565Z,18.25
2024-03-08T17:36:20.939Z,18.92
2024-03-08T17:38:51.909Z,16.45
2024-03-08T17:41:24.245Z,17.65
2024-03-08T17:46:22.369Z,16.73
2024-03-08T17:48:57.333Z,16.25
2024-03-08T17:51:25.700Z,16.77
2024-03-08T17:53:54.099Z,15.73
2024-03-08T17:56:22.609Z,17.20
2024-03-08T17:58:52.469Z,16.90
2024-03-08T18:01:22.061Z,15.18
2024-03-08T18:03:50.832Z,15.82
2024-03-08T18:06:20.674Z,16.20
2024-03-08T18:08:49.021Z,15.30
2024-03-08T18:11:17.593Z,15.27
2024-03-08T18:13:48.536Z,16.23
2024-03-08T18:16:17.556Z,17.30
2024-03-08T18:18:48.697Z,16.27
2024-03-08T18:21:17.210Z,15.65
2024-03-08T18:23:47.082Z,15.43
2024-03-08T18:26:15.765Z,15.90
2024-03-08T18:28:49.809Z,14.30
2024-03-08T18:31:19.111Z,15.02
2024-03-08T18:33:50.041Z,16.30
2024-03-08T18:36:19.569Z,16.30
2024-03-08T18:38:50.203Z,17.27
2024-03-08T18:41:21.714Z,16.90
2024-03-08T18:43:51.603Z,17.00
2024-03-08T18:46:24.684Z,16.92
2024-03-08T18:48:53.445Z,15.68
2024-03-08T18:51:22.479Z,17.05
2024-03-08T18:53:53.400Z,17.08
2024-03-08T18:56:22.818Z,16.42
2024-03-08T18:58:51.808Z,15.45
2024-03-08T19:01:26.930Z,16.90
2024-03-08T19:03:56.625Z,17.27
2024-03-08T19:06:28.796Z,18.52
2024-03-08T19:08:59.855Z,17.52
2024-03-08T19:11:32.141Z,18.33
2024-03-08T19:14:01.235Z,17.83
2024-03-08T19:16:31.762Z,17.08
2024-03-08T19:19:01.481Z,19.13
2024-03-08T19:21:33.185Z,17.90
2024-03-08T19:24:04.853Z,18.00
2024-03-08T19:26:34.223Z,18.80
2024-03-08T19:29:07.730Z,17.77
2024-03-08T19:31:38.394Z,19.08
2024-03-08T19:34:11.810Z,18.60
2024-03-08T19:36:41.034Z,18.23
2024-03-08T19:39:17.978Z,19.05
2024-03-08T19:41:48.265Z,19.98
2024-03-08T19:44:17.692Z,18.52
2024-03-08T19:46:48.649Z,18.17
2024-03-08T19:49:18.438Z,21.27
2024-03-08T19:51:47.317Z,21.23
2024-03-08T19:54:17.068Z,20.67
2024-03-08T19:56:49.098Z,21.42
2024-03-08T19:59:18.247Z,20.25
2024-03-08T20:01:47.208Z,21.75
2024-03-08T20:04:17.173Z,23.73
2024-03-08T20:06:46.911Z,24.63
2024-03-08T20:09:22.834Z,22.95
2024-03-08T20:11:51.376Z,20.50
2024-03-08T20:14:21.639Z,20.42
2024-03-08T20:16:51.973Z,19.45
2024-03-08T20:19:23.238Z,20.27
2024-03-08T20:21:55.592Z,21.05
2024-03-08T20:24:25.945Z,22.50
2024-03-08T20:26:54.776Z,21.73
2024-03-08T20:29:23.864Z,20.92
2024-03-08T20:31:54.682Z,20.13
2024-03-08T20:34:24.919Z,22.50
2024-03-08T20:36:53.745Z,24.13
2024-03-08T20:39:22.491Z,22.30
2024-03-08T20:41:55.750Z,24.05
2024-03-08T20:44:25.658Z,21.77
2024-03-08T20:46:54.360Z,21.25
2024-03-08T20:49:23.241Z,20.83
2024-03-08T20:51:52.132Z,20.00
2024-03-08T20:54:20.863Z,20.25
2024-03-08T20:56:49.367Z,20.23
2024-03-08T20:59:20.548Z,19.88
2024-03-08T21:01:49.385Z,30.70
2024-03-08T21:04:18.759Z,33.25
2024-03-08T21:06:47.374Z,31.60
2024-03-08T21:09:17.497Z,33.72
2024-03-08T21:11:46.217Z,26.25
2024-03-08T21:14:15.600Z,19.75
2024-03-08T21:16:45.353Z,19.75
2024-03-08T21:19:14.533Z,20.17
2024-03-08T21:21:43.398Z,20.05
2024-03-08T21:24:14.293Z,19.80
2024-03-08T21:26:46.072Z,18.20
2024-03-08T21:29:16.843Z,20.40
2024-03-08T21:31:48.496Z,19.33
2024-03-08T21:34:17.185Z,19.13
2024-03-08T21:36:46.153Z,20.13
2024-03-08T21:39:17.337Z,18.40
2024-03-08T21:41:58.353Z,18.50
2024-03-08T21:44:27.571Z,19.52
2024-03-08T21:46:58.786Z,20.13
2024-03-08T21:49:28.133Z,20.50
2024-03-08T21:51:56.734Z,20.52
2024-03-08T21:54:27.090Z,18.33
2024-03-08T21:56:55.665Z,20.45
2024-03-08T21:59:24.138Z,22.00
2024-03-08T22:01:56.383Z,21.58
2024-03-08T22:04:30.151Z,20.42
2024-03-08T22:06:58.818Z,22.13
2024-03-08T22:09:27.332Z,20.75
2024-03-08T22:11:58.871Z,19.45
2024-03-08T22:14:28.849Z,19.83
2024-03-08T22:16:57.465Z,18.33
2024-03-08T22:19:29.936Z,20.00
2024-03-08T22:21:58.511Z,22.02
2024-03-08T22:24:27.013Z,21.65
2024-03-08T22:27:01.783Z,22.50
2024-03-08T22:29:30.332Z,21.35
2024-03-08T22:32:01.864Z,20.33
2024-03-08T22:34:31.863Z,19.92
2024-03-08T22:37:03.551Z,19.48
2024-03-08T22:39:35.237Z,19.70
2024-03-08T22:42:06.970Z,21.05
2024-03-08T22:44:41.927Z,18.20
2024-03-08T22:47:11.450Z,19.10
2024-03-08T22:49:42.341Z,19.00
2024-03-08T22:52:12.037Z,20.02
2024-03-08T22:54:43.894Z,21.65
2024-03-08T22:57:23.123Z,18.52
2024-03-08T22:59:54.837Z,19.33
2024-03-08T23:02:23.468Z,17.98
2024-03-08T23:04:58.937Z,18.98
2024-03-08T23:07:29.217Z,20.10
2024-03-08T23:10:00.502Z,18.90
2024-03-08T23:12:30.332Z,19.63
2024-03-08T23:14:59.440Z,17.88
2024-03-08T23:17:30.758Z,19.83
2024-03-08T23:20:07.219Z,19.85
2024-03-08T23:22:35.692Z,20.17
2024-03-08T23:25:11.168Z,18.55
2024-03-08T23:27:41.428Z,21.20
2024-03-08T23:30:13.041Z,18.83
2024-03-08T23:32:43.323Z,20.77
2024-03-08T23:35:17.866Z,21.42
2024-03-08T23:37:50.648Z,18.63
2024-03-08T23:40:22.480Z,23.08
2024-03-08T23:42:55.114Z,20.33
2024-03-08T23:45:23.981Z,21.00
2024-03-08T23:47:55.319Z,19.70
2024-03-08T23:50:31.570Z,20.95
2024-03-08T23:53:09.586Z,21.90
2024-03-08T23:55:41.894Z,20.42
2024-03-08T23:58:13.700Z,19.25
